createdAt,value
2019-05-21T00:00:14.615Z,0.00
2019-05-21T00:01:14.601Z,0.00
2019-05-21T00:02:14.582Z,0.00
2019-05-21T00:03:14.606Z,0.00
2019-05-21T00:04:27.466Z,0.00
2019-05-21T00:05:15.542Z,0.00
2019-05-21T00:06:14.552Z,0.00
2019-05-21T00:07:14.524Z,0.00
2019-05-21T00:08:14.512Z,0.00
2019-05-21T00:09:14.512Z,0.00
2019-05-21T00:10:14.491Z,0.00
2019-05-21T00:11:14.485Z,0.00
2019-05-21T00:12:14.466Z,0.00
2019-05-21T00:13:14.463Z,0.00
2019-05-21T00:14:14.472Z,0.00
2019-05-21T00:15:14.431Z,0.00
2019-05-21T00:16:14.435Z,0.00
2019-05-21T00:17:14.415Z,0.00
2019-05-21T00:18:14.413Z,0.00
2019-05-21T00:19:14.393Z,0.00
2019-05-21T00:20:14.401Z,0.00
2019-05-21T00:21:14.457Z,0.00
2019-05-21T00:22:14.362Z,0.00
2019-05-21T00:23:14.365Z,0.00
2019-05-21T00:24:14.342Z,0.00
2019-05-21T00:25:17.144Z,0.00
2019-05-21T00:26:14.320Z,0.00
2019-05-21T00:27:14.312Z,0.00
2019-05-21T00:28:14.292Z,0.00
2019-05-21T00:29:14.282Z,0.00
2019-05-21T00:30:14.273Z,0.00
2019-05-21T00:31:14.272Z,0.00
2019-05-21T00:32:14.242Z,0.00
2019-05-21T00:33:14.236Z,0.00
2019-05-21T00:34:14.232Z,0.00
2019-05-21T00:35:14.223Z,0.00
2019-05-21T00:36:14.223Z,0.00
2019-05-21T00:37:14.192Z,0.00
2019-05-21T00:38:14.206Z,0.00
2019-05-21T00:39:14.183Z,0.00
2019-05-21T00:40:14.153Z,0.00
2019-05-21T00:41:14.165Z,0.00
2019-05-21T00:42:14.143Z,0.00
2019-05-21T00:43:14.136Z,0.00
2019-05-21T00:44:14.113Z,0.00
2019-05-21T00:45:14.102Z,0.00
2019-05-21T00:46:14.103Z,0.00
2019-05-21T00:47:14.094Z,0.00
2019-05-21T00:48:14.082Z,0.00
2019-05-21T00:49:14.063Z,0.00
2019-05-21T00:50:14.062Z,0.00
2019-05-21T00:51:14.044Z,0.00
2019-05-21T00:52:14.037Z,0.00
2019-05-21T00:53:14.013Z,0.00
2019-05-21T00:54:14.013Z,0.00
2019-05-21T00:55:14.003Z,0.00
2019-05-21T00:56:13.992Z,0.00
2019-05-21T00:57:13.973Z,0.00
2019-05-21T00:58:13.983Z,0.00
2019-05-21T00:59:13.962Z,0.00
2019-05-21T01:00:13.964Z,0.00
2019-05-21T01:01:13.931Z,0.00
2019-05-21T01:02:13.933Z,0.00
2019-05-21T01:03:13.925Z,0.00
2019-05-21T01:04:13.905Z,0.00
2019-05-21T01:05:13.895Z,0.00
2019-05-21T01:06:13.873Z,0.00
2019-05-21T01:07:13.876Z,0.00
2019-05-21T01:08:13.853Z,0.00
2019-05-21T01:09:13.887Z,0.00
2019-05-21T01:10:13.833Z,0.00
2019-05-21T01:11:13.846Z,0.00
2019-05-21T01:12:13.815Z,0.00
2019-05-21T01:13:13.803Z,0.00
2019-05-21T01:14:13.793Z,0.00
2019-05-21T01:15:13.807Z,0.00
2019-05-21T01:16:13.773Z,0.00
2019-05-21T01:17:13.757Z,0.00
2019-05-21T01:18:13.744Z,0.00
2019-05-21T01:19:13.753Z,0.00
2019-05-21T01:20:13.733Z,0.00
2019-05-21T01:21:13.712Z,0.00
2019-05-21T01:22:13.723Z,0.00
2019-05-21T01:23:13.718Z,0.00
2019-05-21T01:24:13.697Z,0.00
2019-05-21T01:25:13.667Z,0.00
2019-05-21T01:26:13.663Z,0.00
2019-05-21T01:27:13.648Z,0.00
2019-05-21T01:28:13.643Z,0.00
2019-05-21T01:29:13.656Z,0.00
2019-05-21T01:30:13.614Z,0.00
2019-05-21T01:31:13.604Z,0.00
2019-05-21T01:32:13.588Z,0.00
2019-05-21T01:33:13.583Z,0.00
2019-05-21T01:34:13.583Z,0.00
2019-05-21T01:35:17.070Z,0.00
2019-05-21T01:36:13.576Z,0.00
2019-05-21T01:37:13.536Z,0.00
2019-05-21T01:38:13.546Z,0.00
2019-05-21T01:39:13.513Z,0.00
2019-05-21T01:40:13.515Z,0.00
2019-05-21T01:41:13.497Z,0.00
2019-05-21T01:42:13.492Z,0.00
2019-05-21T01:43:13.473Z,0.00
2019-05-21T01:44:13.464Z,0.00
2019-05-21T01:45:13.454Z,0.00
2019-05-21T01:46:13.485Z,0.00
2019-05-21T01:47:13.458Z,0.00
2019-05-21T01:48:13.427Z,0.00
2019-05-21T01:49:13.420Z,0.00
2019-05-21T01:50:13.392Z,0.00
2019-05-21T01:51:13.384Z,0.00
2019-05-21T01:52:13.384Z,0.00
2019-05-21T01:53:13.365Z,0.00
2019-05-21T01:54:13.356Z,0.00
2019-05-21T01:55:13.344Z,0.00
2019-05-21T01:56:13.364Z,0.00
2019-05-21T01:57:13.322Z,0.00
2019-05-21T01:58:13.304Z,0.00
2019-05-21T01:59:13.305Z,0.00
2019-05-21T02:00:13.284Z,0.00
2019-05-21T02:01:13.274Z,0.00
2019-05-21T02:02:13.280Z,0.00
2019-05-21T02:03:13.264Z,0.00
2019-05-21T02:04:13.244Z,0.00
2019-05-21T02:05:13.225Z,0.00
2019-05-21T02:06:13.235Z,0.00
2019-05-21T02:07:13.224Z,0.00
2019-05-21T02:08:13.210Z,0.00
2019-05-21T02:09:13.198Z,0.00
2019-05-21T02:10:13.174Z,0.00
2019-05-21T02:11:13.165Z,0.00
2019-05-21T02:12:13.177Z,0.00
2019-05-21T02:13:13.168Z,0.00
2019-05-21T02:14:13.138Z,0.00
2019-05-21T02:15:13.126Z,0.00
2019-05-21T02:16:13.130Z,0.00
2019-05-21T02:17:13.104Z,0.00
2019-05-21T02:18:13.117Z,0.00
2019-05-21T02:19:13.104Z,0.00
2019-05-21T02:20:13.078Z,0.00
2019-05-21T02:21:13.074Z,0.00
2019-05-21T02:22:13.064Z,0.00
2019-05-21T02:23:13.065Z,0.00
2019-05-21T02:24:13.055Z,0.00
2019-05-21T02:25:13.019Z,0.00
2019-05-21T02:26:12.995Z,0.00
2019-05-21T02:27:12.984Z,0.00
2019-05-21T02:28:12.995Z,0.00
2019-05-21T02:29:12.968Z,0.00
2019-05-21T02:30:12.955Z,0.00
2019-05-21T02:31:12.946Z,0.00
2019-05-21T02:32:12.935Z,0.00
2019-05-21T02:33:12.936Z,0.00
2019-05-21T02:34:12.919Z,0.00
2019-05-21T02:35:12.895Z,0.00
2019-05-21T02:36:12.897Z,0.00
2019-05-21T02:37:12.888Z,0.00
2019-05-21T02:38:12.881Z,0.00
2019-05-21T02:39:12.874Z,0.00
2019-05-21T02:40:12.859Z,0.00
2019-05-21T02:41:12.846Z,0.00
2019-05-21T02:42:12.826Z,0.00
2019-05-21T02:43:12.826Z,0.00
2019-05-21T02:44:12.815Z,0.00
2019-05-21T02:45:12.786Z,0.00
2019-05-21T02:46:12.809Z,0.00
2019-05-21T02:47:12.774Z,0.00
2019-05-21T02:48:12.766Z,0.00
2019-05-21T02:49:12.776Z,0.00
2019-05-21T02:50:12.757Z,0.00
2019-05-21T02:51:12.732Z,0.00
2019-05-21T02:52:12.715Z,0.00
2019-05-21T02:53:12.705Z,0.00
2019-05-21T02:54:12.715Z,0.00
2019-05-21T02:55:12.686Z,0.00
2019-05-21T02:56:12.677Z,0.00
2019-05-21T02:57:12.688Z,0.00
2019-05-21T02:58:12.662Z,0.00
2019-05-21T02:59:12.642Z,0.00
2019-05-21T03:00:12.637Z,0.00
2019-05-21T03:01:12.615Z,0.00
2019-05-21T03:02:12.609Z,0.00
2019-05-21T03:03:12.598Z,0.00
2019-05-21T03:04:12.596Z,0.00
2019-05-21T03:05:12.576Z,0.00
2019-05-21T03:06:14.738Z,0.00
2019-05-21T03:07:12.556Z,0.00
2019-05-21T03:08:12.538Z,0.00
2019-05-21T03:09:12.527Z,0.00
2019-05-21T03:10:12.516Z,4.00
2019-05-21T03:11:12.517Z,4.00
2019-05-21T03:12:12.496Z,4.00
2019-05-21T03:13:12.508Z,0.00
2019-05-21T03:14:12.476Z,0.00
2019-05-21T03:15:12.470Z,4.00
2019-05-21T03:16:12.455Z,4.00
2019-05-21T03:17:12.449Z,8.00
2019-05-21T03:18:12.448Z,4.00
2019-05-21T03:19:16.372Z,8.00
2019-05-21T03:20:12.411Z,4.00
2019-05-21T03:21:12.464Z,4.00
2019-05-21T03:22:12.392Z,8.00
2019-05-21T03:23:12.396Z,8.00
2019-05-21T03:24:12.377Z,8.00
2019-05-21T03:25:12.365Z,8.00
2019-05-21T03:26:12.346Z,12.00
2019-05-21T03:27:12.348Z,12.00
2019-05-21T03:28:12.356Z,12.00
2019-05-21T03:29:12.306Z,20.00
2019-05-21T03:30:12.319Z,20.00
2019-05-21T03:31:12.288Z,24.00
2019-05-21T03:32:12.277Z,24.00
2019-05-21T03:33:12.266Z,24.00
2019-05-21T03:34:12.278Z,28.00
2019-05-21T03:35:12.280Z,32.00
2019-05-21T03:36:13.893Z,24.00
2019-05-21T03:37:13.217Z,28.00
2019-05-21T03:38:12.232Z,28.00
2019-05-21T03:39:12.219Z,24.00
2019-05-21T03:40:12.185Z,28.00
2019-05-21T03:41:12.206Z,28.00
2019-05-21T03:42:12.174Z,36.00
2019-05-21T03:43:12.153Z,40.00
2019-05-21T03:44:12.161Z,40.00
2019-05-21T03:45:12.156Z,48.00
2019-05-21T03:46:12.125Z,52.00
2019-05-21T03:47:12.117Z,64.00
2019-05-21T03:48:12.096Z,72.00
2019-05-21T03:49:12.119Z,76.00
2019-05-21T03:50:12.086Z,80.00
2019-05-21T03:51:12.098Z,92.00
2019-05-21T03:52:12.057Z,92.00
2019-05-21T03:53:12.047Z,92.00
2019-05-21T03:54:12.039Z,108.00
2019-05-21T03:55:12.028Z,108.00
2019-05-21T03:56:12.007Z,116.00
2019-05-21T03:57:12.002Z,132.00
2019-05-21T03:58:12.001Z,132.00
2019-05-21T03:59:11.986Z,140.00
2019-05-21T04:00:11.977Z,156.00
2019-05-21T04:01:11.956Z,156.00
2019-05-21T04:02:11.946Z,144.00
2019-05-21T04:03:11.935Z,184.00
2019-05-21T04:04:12.004Z,192.00
2019-05-21T04:05:11.917Z,188.00
2019-05-21T04:06:11.907Z,236.00
2019-05-21T04:07:11.886Z,244.00
2019-05-21T04:08:11.878Z,256.00
2019-05-21T04:09:11.880Z,284.00
2019-05-21T04:10:11.885Z,248.00
2019-05-21T04:11:11.864Z,244.00
2019-05-21T04:12:11.838Z,260.00
2019-05-21T04:13:11.838Z,292.00
2019-05-21T04:14:11.827Z,268.00
2019-05-21T04:15:11.844Z,284.00
2019-05-21T04:16:11.797Z,296.00
2019-05-21T04:17:11.777Z,292.00
2019-05-21T04:18:11.791Z,328.00
2019-05-21T04:19:11.787Z,284.00
2019-05-21T04:20:11.758Z,276.00
2019-05-21T04:21:11.760Z,284.00
2019-05-21T04:22:11.750Z,352.00
2019-05-21T04:23:11.707Z,492.00
2019-05-21T04:24:11.717Z,376.00
2019-05-21T04:25:11.712Z,436.00
2019-05-21T04:26:11.709Z,536.00
2019-05-21T04:27:11.681Z,548.00
2019-05-21T04:28:11.681Z,556.00
2019-05-21T04:29:11.667Z,488.00
2019-05-21T04:30:11.655Z,676.00
2019-05-21T04:31:11.657Z,676.00
2019-05-21T04:32:11.620Z,592.00
2019-05-21T04:33:11.617Z,644.00
2019-05-21T04:34:11.593Z,604.00
2019-05-21T04:35:11.576Z,436.00
2019-05-21T04:36:11.580Z,552.00
2019-05-21T04:37:12.124Z,664.00
2019-05-21T04:38:11.572Z,632.00
2019-05-21T04:39:11.567Z,752.00
2019-05-21T04:40:11.536Z,724.00
2019-05-21T04:41:11.527Z,796.00
2019-05-21T04:42:11.507Z,780.00
2019-05-21T04:43:11.505Z,928.00
2019-05-21T04:44:11.576Z,776.00
2019-05-21T04:45:11.477Z,888.00
2019-05-21T04:46:11.486Z,880.00
2019-05-21T04:47:11.459Z,900.00
2019-05-21T04:48:11.448Z,848.00
2019-05-21T04:49:11.427Z,812.00
2019-05-21T04:50:11.429Z,848.00
2019-05-21T04:51:13.903Z,800.00
2019-05-21T04:52:11.403Z,812.00
2019-05-21T04:53:11.387Z,776.00
2019-05-21T04:54:11.387Z,664.00
2019-05-21T04:55:11.378Z,680.00
2019-05-21T04:56:11.382Z,652.00
2019-05-21T04:57:11.347Z,728.00
2019-05-21T04:58:11.328Z,688.00
2019-05-21T04:59:11.331Z,740.00
2019-05-21T05:00:11.308Z,808.00
2019-05-21T05:01:11.310Z,872.00
2019-05-21T05:02:11.287Z,888.00
2019-05-21T05:03:11.280Z,960.00
2019-05-21T05:04:11.267Z,980.00
2019-05-21T05:05:11.268Z,1120.00
2019-05-21T05:06:11.279Z,1292.00
2019-05-21T05:07:27.084Z,1212.00
2019-05-21T05:08:12.218Z,1244.00
2019-05-21T05:09:11.209Z,1260.00
2019-05-21T05:10:11.197Z,1180.00
2019-05-21T05:11:11.187Z,1168.00
2019-05-21T05:12:11.225Z,1256.00
2019-05-21T05:13:11.172Z,1272.00
2019-05-21T05:14:11.147Z,1336.00
2019-05-21T05:15:11.138Z,1380.00
2019-05-21T05:16:11.127Z,1164.00
2019-05-21T05:17:11.128Z,1344.00
2019-05-21T05:18:11.118Z,1356.00
2019-05-21T05:19:11.107Z,1088.00
2019-05-21T05:20:11.108Z,1364.00
2019-05-21T05:21:11.087Z,1572.00
2019-05-21T05:22:11.089Z,1744.00
2019-05-21T05:23:11.081Z,1444.00
2019-05-21T05:24:11.049Z,1368.00
2019-05-21T05:25:11.037Z,1332.00
2019-05-21T05:26:11.038Z,1380.00
2019-05-21T05:27:11.056Z,1544.00
2019-05-21T05:28:11.020Z,1584.00
2019-05-21T05:29:10.987Z,1764.00
2019-05-21T05:30:10.985Z,1584.00
2019-05-21T05:31:10.967Z,1448.00
2019-05-21T05:32:10.958Z,1460.00
2019-05-21T05:33:10.958Z,1376.00
2019-05-21T05:34:10.943Z,1408.00
2019-05-21T05:35:10.941Z,1448.00
2019-05-21T05:36:10.961Z,1336.00
2019-05-21T05:37:10.897Z,1432.00
2019-05-21T05:38:10.920Z,1528.00
2019-05-21T05:39:10.890Z,1776.00
2019-05-21T05:40:10.882Z,1780.00
2019-05-21T05:41:10.871Z,1968.00
2019-05-21T05:42:10.861Z,2024.00
2019-05-21T05:43:10.857Z,2232.00
2019-05-21T05:44:10.843Z,2632.00
2019-05-21T05:45:10.829Z,3176.00
2019-05-21T05:46:10.820Z,2452.00
2019-05-21T05:47:10.787Z,2248.00
2019-05-21T05:48:10.799Z,2388.00
2019-05-21T05:49:10.780Z,2276.00
2019-05-21T05:50:10.767Z,3052.00
2019-05-21T05:51:10.749Z,2928.00
2019-05-21T05:52:10.752Z,2704.00
2019-05-21T05:53:10.740Z,3024.00
2019-05-21T05:54:10.717Z,3108.00
2019-05-21T05:55:10.775Z,2736.00
2019-05-21T05:56:10.709Z,3108.00
2019-05-21T05:57:10.679Z,2660.00
2019-05-21T05:58:10.691Z,2376.00
2019-05-21T05:59:13.867Z,2072.00
2019-05-21T06:00:10.650Z,2396.00
2019-05-21T06:01:10.639Z,2668.00
2019-05-21T06:02:10.631Z,2692.00
2019-05-21T06:03:10.638Z,2496.00
2019-05-21T06:04:10.627Z,2404.00
2019-05-21T06:05:10.598Z,1656.00
2019-05-21T06:06:10.578Z,1676.00
2019-05-21T06:07:10.580Z,1608.00
2019-05-21T06:08:10.570Z,2052.00
2019-05-21T06:09:10.548Z,1944.00
2019-05-21T06:10:10.571Z,2036.00
2019-05-21T06:11:10.537Z,1876.00
2019-05-21T06:12:10.518Z,1544.00
2019-05-21T06:13:10.509Z,1700.00
2019-05-21T06:14:10.517Z,2316.00
2019-05-21T06:15:10.508Z,2556.00
2019-05-21T06:16:10.478Z,2308.00
2019-05-21T06:17:10.457Z,2252.00
2019-05-21T06:18:10.457Z,2848.00
2019-05-21T06:19:10.447Z,2824.00
2019-05-21T06:20:10.437Z,3508.00
2019-05-21T06:21:10.441Z,3620.00
2019-05-21T06:22:10.416Z,3832.00
2019-05-21T06:23:10.398Z,3044.00
2019-05-21T06:24:13.454Z,3076.00
2019-05-21T06:25:10.370Z,3584.00
2019-05-21T06:26:10.380Z,4100.00
2019-05-21T06:27:10.359Z,3868.00
2019-05-21T06:28:10.338Z,4108.00
2019-05-21T06:29:10.338Z,4668.00
2019-05-21T06:30:10.329Z,5112.00
2019-05-21T06:31:10.307Z,3920.00
2019-05-21T06:32:10.317Z,4120.00
2019-05-21T06:33:10.327Z,4148.00
2019-05-21T06:34:10.281Z,5984.00
2019-05-21T06:35:10.277Z,5768.00
2019-05-21T06:36:10.282Z,6252.00
2019-05-21T06:37:10.238Z,6392.00
2019-05-21T06:38:17.641Z,5800.00
2019-05-21T06:39:11.217Z,6784.00
2019-05-21T06:40:10.208Z,5904.00
2019-05-21T06:41:10.265Z,6460.00
2019-05-21T06:42:10.190Z,7444.00
2019-05-21T06:43:10.198Z,7016.00
2019-05-21T06:44:10.168Z,6920.00
2019-05-21T06:45:10.157Z,6208.00
2019-05-21T06:46:10.233Z,6024.00
2019-05-21T06:47:10.137Z,6000.00
2019-05-21T06:48:10.123Z,5288.00
2019-05-21T06:49:10.119Z,5584.00
2019-05-21T06:50:10.112Z,6232.00
2019-05-21T06:51:10.098Z,5320.00
2019-05-21T06:52:10.088Z,4084.00
2019-05-21T06:53:10.080Z,3664.00
2019-05-21T06:54:10.067Z,4260.00
2019-05-21T06:55:10.047Z,4176.00
2019-05-21T06:56:10.051Z,4736.00
2019-05-21T06:57:10.037Z,5048.00
2019-05-21T06:58:10.021Z,4848.00
2019-05-21T06:59:10.003Z,4644.00
2019-05-21T07:00:09.988Z,3516.00
2019-05-21T07:01:09.987Z,3720.00
2019-05-21T07:02:10.002Z,3784.00
2019-05-21T07:03:09.957Z,3632.00
2019-05-21T07:04:09.968Z,3456.00
2019-05-21T07:05:09.954Z,3360.00
2019-05-21T07:06:09.939Z,3384.00
2019-05-21T07:07:09.916Z,3352.00
2019-05-21T07:08:09.928Z,3632.00
2019-05-21T07:09:09.888Z,3636.00
2019-05-21T07:10:09.886Z,3940.00
2019-05-21T07:11:09.889Z,4052.00
2019-05-21T07:12:09.858Z,4112.00
2019-05-21T07:13:09.852Z,4016.00
2019-05-21T07:14:09.837Z,4184.00
2019-05-21T07:15:09.829Z,4228.00
2019-05-21T07:16:09.828Z,4800.00
2019-05-21T07:17:09.808Z,4772.00
2019-05-21T07:18:09.798Z,5324.00
2019-05-21T07:19:09.788Z,4416.00
2019-05-21T07:20:09.768Z,3616.00
2019-05-21T07:21:09.758Z,4168.00
2019-05-21T07:22:13.068Z,4304.00
2019-05-21T07:23:09.747Z,4068.00
2019-05-21T07:24:09.726Z,4172.00
2019-05-21T07:25:09.719Z,4008.00
2019-05-21T07:26:09.708Z,3484.00
2019-05-21T07:27:09.725Z,3864.00
2019-05-21T07:28:09.718Z,2968.00
2019-05-21T07:29:09.702Z,3760.00
2019-05-21T07:30:09.658Z,2632.00
2019-05-21T07:31:09.674Z,2868.00
2019-05-21T07:32:09.637Z,2176.00
2019-05-21T07:33:09.708Z,2628.00
2019-05-21T07:34:09.628Z,2748.00
2019-05-21T07:35:09.611Z,2436.00
2019-05-21T07:36:09.591Z,2336.00
2019-05-21T07:37:09.585Z,2740.00
2019-05-21T07:38:09.590Z,3080.00
2019-05-21T07:39:09.558Z,2764.00
2019-05-21T07:40:09.579Z,2828.00
2019-05-21T07:41:09.549Z,2608.00
2019-05-21T07:42:09.540Z,2640.00
2019-05-21T07:43:09.534Z,3352.00
2019-05-21T07:44:09.507Z,3340.00
2019-05-21T07:45:09.511Z,3752.00
2019-05-21T07:46:09.507Z,3444.00
2019-05-21T07:47:09.478Z,3104.00
2019-05-21T07:48:09.488Z,3432.00
2019-05-21T07:49:09.549Z,3444.00
2019-05-21T07:50:09.442Z,3372.00
2019-05-21T07:51:09.443Z,3584.00
2019-05-21T07:52:09.450Z,3348.00
2019-05-21T07:53:09.411Z,3568.00
2019-05-21T07:54:09.410Z,3904.00
2019-05-21T07:55:09.393Z,4376.00
2019-05-21T07:56:09.390Z,4080.00
2019-05-21T07:57:09.359Z,3968.00
2019-05-21T07:58:09.348Z,3792.00
2019-05-21T07:59:09.360Z,3632.00
2019-05-21T08:00:09.341Z,3328.00
2019-05-21T08:01:09.328Z,3796.00
2019-05-21T08:02:09.322Z,3352.00
2019-05-21T08:03:09.305Z,3368.00
2019-05-21T08:04:09.296Z,3560.00
2019-05-21T08:05:09.320Z,3716.00
2019-05-21T08:06:09.278Z,3624.00
2019-05-21T08:07:09.259Z,3260.00
2019-05-21T08:08:09.248Z,3372.00
2019-05-21T08:09:13.931Z,3568.00
2019-05-21T08:10:10.326Z,3220.00
2019-05-21T08:11:09.207Z,3120.00
2019-05-21T08:12:27.932Z,3592.00
2019-05-21T08:13:10.188Z,3960.00
2019-05-21T08:14:09.187Z,4120.00
2019-05-21T08:15:09.181Z,4432.00
2019-05-21T08:16:09.202Z,3736.00
2019-05-21T08:17:09.153Z,2756.00
2019-05-21T08:18:09.128Z,2720.00
2019-05-21T08:19:09.146Z,3164.00
2019-05-21T08:20:10.432Z,3632.00
2019-05-21T08:21:09.118Z,3956.00
2019-05-21T08:22:09.118Z,4120.00
2019-05-21T08:23:09.099Z,4588.00
2019-05-21T08:24:09.077Z,4244.00
2019-05-21T08:25:09.073Z,5072.00
2019-05-21T08:26:09.248Z,6132.00
2019-05-21T08:27:09.048Z,4684.00
2019-05-21T08:28:09.032Z,4600.00
2019-05-21T08:29:09.018Z,4488.00
2019-05-21T08:30:08.998Z,4616.00
2019-05-21T08:31:09.009Z,5136.00
2019-05-21T08:32:09.139Z,5888.00
2019-05-21T08:33:08.978Z,5756.00
2019-05-21T08:34:08.958Z,5516.00
2019-05-21T08:35:08.957Z,4428.00
2019-05-21T08:36:08.936Z,4752.00
2019-05-21T08:37:08.935Z,4184.00
2019-05-21T08:38:08.923Z,4572.00
2019-05-21T08:39:08.932Z,4852.00
2019-05-21T08:40:08.901Z,5024.00
2019-05-21T08:41:08.887Z,4168.00
2019-05-21T08:42:08.928Z,3428.00
2019-05-21T08:43:08.882Z,3596.00
2019-05-21T08:44:08.855Z,3432.00
2019-05-21T08:45:08.846Z,3272.00
2019-05-21T08:46:08.827Z,3236.00
2019-05-21T08:47:08.810Z,3628.00
2019-05-21T08:48:08.829Z,3196.00
2019-05-21T08:49:08.791Z,2956.00
2019-05-21T08:50:08.778Z,2952.00
2019-05-21T08:51:08.767Z,2888.00
2019-05-21T08:52:08.800Z,2964.00
2019-05-21T08:53:08.760Z,2800.00
2019-05-21T08:54:08.737Z,3028.00
2019-05-21T08:55:08.727Z,2960.00
2019-05-21T08:56:08.717Z,2680.00
2019-05-21T08:57:08.707Z,2632.00
2019-05-21T08:58:08.763Z,2772.00
2019-05-21T08:59:08.701Z,2860.00
2019-05-21T09:00:08.733Z,2464.00
2019-05-21T09:01:08.663Z,2688.00
2019-05-21T09:02:08.659Z,2528.00
2019-05-21T09:03:08.670Z,3232.00
2019-05-21T09:04:08.657Z,2404.00
2019-05-21T09:05:08.625Z,2280.00
2019-05-21T09:06:08.607Z,2432.00
2019-05-21T09:07:08.596Z,2696.00
2019-05-21T09:08:08.598Z,2628.00
2019-05-21T09:09:08.568Z,2568.00
2019-05-21T09:10:08.575Z,2832.00
2019-05-21T09:11:08.570Z,2772.00
2019-05-21T09:12:08.585Z,3044.00
2019-05-21T09:13:08.538Z,3092.00
2019-05-21T09:14:08.518Z,2924.00
2019-05-21T09:15:08.508Z,3348.00
2019-05-21T09:16:08.497Z,3208.00
2019-05-21T09:17:08.488Z,3248.00
2019-05-21T09:18:08.478Z,3356.00
2019-05-21T09:19:08.490Z,3604.00
2019-05-21T09:20:08.469Z,3588.00
2019-05-21T09:21:08.448Z,3764.00
2019-05-21T09:22:08.427Z,3592.00
2019-05-21T09:23:08.454Z,4064.00
2019-05-21T09:24:08.417Z,4724.00
2019-05-21T09:25:08.401Z,5336.00
2019-05-21T09:26:08.397Z,4160.00
2019-05-21T09:27:08.380Z,4160.00
2019-05-21T09:28:08.377Z,3784.00
2019-05-21T09:29:08.369Z,3720.00
2019-05-21T09:30:08.339Z,4500.00
2019-05-21T09:31:08.327Z,4000.00
2019-05-21T09:32:08.338Z,3808.00
2019-05-21T09:33:08.325Z,4212.00
2019-05-21T09:34:08.300Z,4680.00
2019-05-21T09:35:08.308Z,4064.00
2019-05-21T09:36:08.285Z,4080.00
2019-05-21T09:37:19.022Z,4488.00
2019-05-21T09:38:09.249Z,3996.00
2019-05-21T09:39:08.248Z,4012.00
2019-05-21T09:40:08.238Z,4132.00
2019-05-21T09:41:08.227Z,4132.00
2019-05-21T09:42:08.242Z,4708.00
2019-05-21T09:43:08.206Z,4208.00
2019-05-21T09:44:08.213Z,4388.00
2019-05-21T09:45:08.272Z,4680.00
2019-05-21T09:46:08.197Z,4760.00
2019-05-21T09:47:08.167Z,5100.00
2019-05-21T09:48:08.178Z,4712.00
2019-05-21T09:49:08.138Z,5252.00
2019-05-21T09:50:08.151Z,5316.00
2019-05-21T09:51:08.124Z,4568.00
2019-05-21T09:52:08.117Z,4116.00
2019-05-21T09:53:08.098Z,4520.00
2019-05-21T09:54:08.086Z,4436.00
2019-05-21T09:55:08.086Z,4728.00
2019-05-21T09:56:08.068Z,4952.00
2019-05-21T09:57:08.065Z,4640.00
2019-05-21T09:58:08.048Z,4828.00
2019-05-21T09:59:08.027Z,4884.00
2019-05-21T10:00:08.010Z,4844.00
2019-05-21T10:01:08.018Z,4936.00
2019-05-21T10:02:07.997Z,5400.00
2019-05-21T10:03:07.988Z,6476.00
2019-05-21T10:04:07.967Z,6716.00
2019-05-21T10:05:07.966Z,4900.00
2019-05-21T10:06:07.958Z,4952.00
2019-05-21T10:07:08.018Z,5032.00
2019-05-21T10:08:07.929Z,4164.00
2019-05-21T10:09:07.940Z,5172.00
2019-05-21T10:10:07.907Z,4444.00
2019-05-21T10:11:07.897Z,4076.00
2019-05-21T10:12:07.889Z,4356.00
2019-05-21T10:13:07.877Z,3832.00
2019-05-21T10:14:07.890Z,3912.00
2019-05-21T10:15:07.862Z,3748.00
2019-05-21T10:16:07.837Z,3568.00
2019-05-21T10:17:07.848Z,3416.00
2019-05-21T10:18:07.818Z,3392.00
2019-05-21T10:19:07.798Z,3804.00
2019-05-21T10:20:07.790Z,3568.00
2019-05-21T10:21:07.777Z,3836.00
2019-05-21T10:22:08.066Z,4232.00
2019-05-21T10:23:07.766Z,3812.00
2019-05-21T10:24:07.774Z,4552.00
2019-05-21T10:25:07.753Z,4824.00
2019-05-21T10:26:07.729Z,3820.00
2019-05-21T10:27:07.717Z,3520.00
2019-05-21T10:28:07.733Z,4280.00
2019-05-21T10:29:07.718Z,3964.00
2019-05-21T10:30:07.711Z,3720.00
2019-05-21T10:31:07.677Z,3668.00
2019-05-21T10:32:07.678Z,3528.00
2019-05-21T10:33:07.708Z,4556.00
2019-05-21T10:34:07.651Z,4604.00
2019-05-21T10:35:07.704Z,4176.00
2019-05-21T10:36:07.618Z,4808.00
2019-05-21T10:37:07.608Z,6112.00
2019-05-21T10:38:07.597Z,3908.00
2019-05-21T10:39:07.596Z,3752.00
2019-05-21T10:40:07.578Z,4244.00
2019-05-21T10:41:07.560Z,4340.00
2019-05-21T10:42:07.564Z,4620.00
2019-05-21T10:43:07.550Z,4376.00
2019-05-21T10:44:07.553Z,4152.00
2019-05-21T10:45:07.518Z,3948.00
2019-05-21T10:46:07.508Z,3588.00
2019-05-21T10:47:07.511Z,3764.00
2019-05-21T10:48:07.529Z,3416.00
2019-05-21T10:49:07.482Z,3284.00
2019-05-21T10:50:07.530Z,3316.00
2019-05-21T10:51:07.471Z,3960.00
2019-05-21T10:52:07.437Z,3876.00
2019-05-21T10:53:07.428Z,3884.00
2019-05-21T10:54:07.440Z,3480.00
2019-05-21T10:55:07.417Z,4488.00
2019-05-21T10:56:07.420Z,6016.00
2019-05-21T10:57:07.401Z,5244.00
2019-05-21T10:58:07.377Z,4724.00
2019-05-21T10:59:07.386Z,7012.00
2019-05-21T11:00:07.359Z,6724.00
2019-05-21T11:01:07.338Z,6552.00
2019-05-21T11:02:07.408Z,5780.00
2019-05-21T11:03:07.339Z,5844.00
2019-05-21T11:04:07.328Z,6036.00
2019-05-21T11:05:07.300Z,5076.00
2019-05-21T11:06:10.124Z,4472.00
2019-05-21T11:07:07.277Z,3924.00
2019-05-21T11:08:24.344Z,4096.00
2019-05-21T11:09:08.287Z,4484.00
2019-05-21T11:10:07.791Z,5752.00
2019-05-21T11:11:07.241Z,5368.00
2019-05-21T11:12:07.248Z,5384.00
2019-05-21T11:13:07.212Z,5456.00
2019-05-21T11:14:07.209Z,5884.00
2019-05-21T11:15:07.207Z,6404.00
2019-05-21T11:16:07.238Z,8512.00
2019-05-21T11:17:07.191Z,7120.00
2019-05-21T11:18:11.239Z,4800.00
2019-05-21T11:19:07.147Z,4640.00
2019-05-21T11:20:07.166Z,5440.00
2019-05-21T11:21:07.127Z,5984.00
2019-05-21T11:22:07.118Z,5296.00
2019-05-21T11:23:07.111Z,5444.00
2019-05-21T11:24:07.238Z,6256.00
2019-05-21T11:25:07.088Z,4912.00
2019-05-21T11:26:07.077Z,5912.00
2019-05-21T11:27:07.058Z,6016.00
2019-05-21T11:28:07.056Z,7220.00
2019-05-21T11:29:07.050Z,5492.00
2019-05-21T11:30:07.038Z,6780.00
2019-05-21T11:31:07.018Z,7340.00
2019-05-21T11:32:06.997Z,6068.00
2019-05-21T11:33:07.430Z,7404.00
2019-05-21T11:34:06.991Z,10360.00
2019-05-21T11:35:06.975Z,11016.00
2019-05-21T11:36:06.973Z,7184.00
2019-05-21T11:37:06.992Z,5660.00
2019-05-21T11:38:06.949Z,5932.00
2019-05-21T11:39:06.927Z,5100.00
2019-05-21T11:40:08.639Z,5984.00
2019-05-21T11:41:06.937Z,5756.00
2019-05-21T11:42:06.888Z,3936.00
2019-05-21T11:43:06.888Z,3396.00
2019-05-21T11:44:06.887Z,3484.00
2019-05-21T11:45:06.871Z,4712.00
2019-05-21T11:46:06.855Z,4344.00
2019-05-21T11:47:06.848Z,4376.00
2019-05-21T11:48:06.837Z,4664.00
2019-05-21T11:49:06.818Z,6104.00
2019-05-21T11:50:06.808Z,4932.00
2019-05-21T11:51:06.820Z,4808.00
2019-05-21T11:52:06.777Z,4516.00
2019-05-21T11:53:06.789Z,4288.00
2019-05-21T11:54:06.764Z,4864.00
2019-05-21T11:55:06.797Z,4484.00
2019-05-21T11:56:06.737Z,5744.00
2019-05-21T11:57:06.728Z,4940.00
2019-05-21T11:58:06.737Z,6196.00
2019-05-21T11:59:06.728Z,6928.00
2019-05-21T12:00:06.701Z,8000.00
2019-05-21T12:01:06.709Z,7064.00
2019-05-21T12:02:06.696Z,6148.00
2019-05-21T12:03:06.667Z,4568.00
2019-05-21T12:04:06.658Z,4104.00
2019-05-21T12:05:06.665Z,5536.00
2019-05-21T12:06:06.636Z,5248.00
2019-05-21T12:07:06.648Z,5796.00
2019-05-21T12:08:06.608Z,7920.00
2019-05-21T12:09:06.598Z,8972.00
2019-05-21T12:10:06.597Z,9836.00
2019-05-21T12:11:06.591Z,12920.00
2019-05-21T12:12:06.567Z,11820.00
2019-05-21T12:13:06.566Z,10612.00
2019-05-21T12:14:06.561Z,10284.00
2019-05-21T12:15:06.576Z,8060.00
2019-05-21T12:16:06.522Z,7064.00
2019-05-21T12:17:06.519Z,7232.00
2019-05-21T12:18:06.512Z,5592.00
2019-05-21T12:19:08.244Z,6208.00
2019-05-21T12:20:06.499Z,5880.00
2019-05-21T12:21:06.468Z,5336.00
2019-05-21T12:22:06.470Z,4676.00
2019-05-21T12:23:06.453Z,4472.00
2019-05-21T12:24:06.434Z,4824.00
2019-05-21T12:25:06.544Z,6760.00
2019-05-21T12:26:06.419Z,5208.00
2019-05-21T12:27:06.397Z,4672.00
2019-05-21T12:28:06.412Z,6324.00